Time;durP1;ratioP1;P1;durP2;ratioP2;P2;SDS_P1;SDS_P2;PMS_P1;PMS_P2;Temp;Humidity;BMP_temperature;BMP_pressure;BME280_temperature;BME280_humidity;BME280_pressure;Samples;Min_cycle;Max_cycle;Signal;HPM_P1;HPM_P2
2022/12/06 00:01:32;;;;;;;13.65;5.07;;;;;;;;;;5051013;28;20083;-77
2022/12/06 00:04:00;;;;;;;15.50;4.90;;;;;;;;;;5050728;28;20053;-77
2022/12/06 00:06:28;;;;;;;12.48;4.55;;;;;;;;;;5034869;28;20128;-77
2022/12/06 00:08:54;;;;;;;14.68;5.32;;;;;;;;;;5050703;28;20067;-77
2022/12/06 00:11:22;;;;;;;17.58;4.95;;;;;;;;;;5051355;28;20044;-77
2022/12/06 00:13:52;;;;;;;10.75;4.63;;;;;;;;;;5050826;28;20410;-77
2022/12/06 00:16:18;;;;;;;10.90;4.68;;;;;;;;;;5050961;28;20049;-77
2022/12/06 00:18:45;;;;;;;14.40;4.40;;;;;;;;;;5051915;28;20083;-77
2022/12/06 00:21:15;;;;;;;10.85;4.28;;;;;;;;;;5052290;28;20036;-77
2022/12/06 00:23:45;;;;;;;12.73;5.10;;;;;;;;;;5050598;28;20127;-77
2022/12/06 00:26:12;;;;;;;14.20;4.70;;;;;;;;;;5050783;28;20094;-77
2022/12/06 00:28:38;;;;;;;13.35;4.80;;;;;;;;;;5034658;28;20528;-77
2022/12/06 00:31:09;;;;;;;13.77;5.32;;;;;;;;;;5033743;28;20041;-77
2022/12/06 00:33:36;;;;;;;11.02;4.20;;;;;;;;;;5050800;28;20044;-77
2022/12/06 00:36:04;;;;;;;11.20;4.32;;;;;;;;;;5050561;28;20167;-77
2022/12/06 00:38:30;;;;;;;10.57;4.30;;;;;;;;;;5050831;28;20037;-77
2022/12/06 00:41:00;;;;;;;9.20;3.80;;;;;;;;;;5050339;28;20041;-77
2022/12/06 00:43:27;;;;;;;9.18;4.18;;;;;;;;;;5050884;28;20600;-77
2022/12/06 00:45:53;;;;;;;11.15;4.35;;;;;;;;;;5050350;28;20045;-77
2022/12/06 00:48:19;;;;;;;12.70;4.40;;;;;;;;;;5051661;28;20379;-77
2022/12/06 00:50:45;;;;;;;11.75;4.18;;;;;;;;;;5055904;28;20051;-77
2022/12/06 00:53:11;;;;;;;13.70;4.30;;;;;;;;;;5054794;28;20041;-77
2022/12/06 00:55:37;;;;;;;8.65;4.28;;;;;;;;;;5054661;28;20048;-77
2022/12/06 00:58:03;;;;;;;10.63;4.20;;;;;;;;;;5055192;28;20052;-77
2022/12/06 01:00:30;;;;;;;13.15;4.00;;;;;;;;;;5054454;28;20060;-77
2022/12/06 01:02:57;;;;;;;14.20;4.30;;;;;;;;;;5070793;28;20111;-77
2022/12/06 01:05:23;;;;;;;20.42;4.78;;;;;;;;;;5054617;28;20080;-77
2022/12/06 01:07:49;;;;;;;11.77;4.10;;;;;;;;;;5055552;28;20040;-77
2022/12/06 01:10:15;;;;;;;11.30;3.67;;;;;;;;;;5055854;28;20049;-77
2022/12/06 01:12:42;;;;;;;16.20;3.88;;;;;;;;;;5054299;28;20037;-77
2022/12/06 01:15:08;;;;;;;11.48;3.50;;;;;;;;;;5053991;28;20041;-77
2022/12/06 01:17:34;;;;;;;11.50;3.35;;;;;;;;;;5054258;28;20072;-77
2022/12/06 01:20:00;;;;;;;10.90;3.55;;;;;;;;;;5054012;28;20044;-77
2022/12/06 01:22:27;;;;;;;10.40;3.38;;;;;;;;;;5037502;28;20044;-77
2022/12/06 01:24:53;;;;;;;10.85;3.13;;;;;;;;;;5037622;28;20037;-77
2022/12/06 01:27:19;;;;;;;8.35;3.10;;;;;;;;;;5055230;28;20045;-77
2022/12/06 01:29:45;;;;;;;10.55;2.95;;;;;;;;;;5053999;28;20041;-77
2022/12/06 01:32:11;;;;;;;10.05;3.25;;;;;;;;;;5053691;28;20048;-77
2022/12/06 01:34:37;;;;;;;8.35;2.88;;;;;;;;;;5043746;28;20490;-77
2022/12/06 01:37:04;;;;;;;11.15;3.47;;;;;;;;;;5053556;28;20049;-78
2022/12/06 01:39:30;;;;;;;9.35;2.80;;;;;;;;;;5054261;28;20068;-77
2022/12/06 01:41:56;;;;;;;7.60;2.50;;;;;;;;;;5055143;28;20040;-77
2022/12/06 01:44:39;;;;;;;8.38;2.92;;;;;;;;;;5053713;28;20045;-77
2022/12/06 01:47:06;;;;;;;6.97;3.00;;;;;;;;;;5053753;28;20045;-77
2022/12/06 01:49:33;;;;;;;13.20;3.45;;;;;;;;;;5054016;28;20079;-77
2022/12/06 01:52:01;;;;;;;10.77;2.88;;;;;;;;;;5053034;28;20040;-77
2022/12/06 01:54:28;;;;;;;6.47;2.55;;;;;;;;;;5037070;28;20063;-77
2022/12/06 01:56:55;;;;;;;9.57;3.47;;;;;;;;;;5055079;28;20037;-77
2022/12/06 01:59:21;;;;;;;8.10;2.90;;;;;;;;;;5053557;28;20379;-77
2022/12/06 02:01:48;;;;;;;8.18;2.90;;;;;;;;;;5053265;28;20087;-77
2022/12/06 02:04:15;;;;;;;10.77;2.88;;;;;;;;;;5053010;28;20052;-77
2022/12/06 02:06:41;;;;;;;6.72;2.60;;;;;;;;;;5054754;28;20045;-77
2022/12/06 02:09:08;;;;;;;8.25;2.50;;;;;;;;;;5053050;28;20489;-77
2022/12/06 02:11:34;;;;;;;8.77;2.70;;;;;;;;;;5053715;28;20486;-77
2022/12/06 02:14:01;;;;;;;7.85;2.92;;;;;;;;;;5053883;28;20041;-77
2022/12/06 02:16:44;;;;;;;9.95;3.00;;;;;;;;;;5053252;28;20048;-77
2022/12/06 02:19:11;;;;;;;7.68;2.83;;;;;;;;;;5052694;28;20040;-77
2022/12/06 02:21:37;;;;;;;9.02;3.00;;;;;;;;;;5053148;28;20037;-77
2022/12/06 02:24:21;;;;;;;9.43;3.08;;;;;;;;;;5052716;28;20127;-77
2022/12/06 02:26:48;;;;;;;9.15;3.20;;;;;;;;;;5052949;28;20065;-77
2022/12/06 02:29:15;;;;;;;9.90;2.72;;;;;;;;;;5035785;28;20045;-77
2022/12/06 02:31:47;;;;;;;8.57;2.90;;;;;;;;;;5053132;28;20508;-77
2022/12/06 02:34:13;;;;;;;6.53;2.70;;;;;;;;;;5041765;28;20045;-77
2022/12/06 02:36:53;;;;;;;8.07;2.65;;;;;;;;;;5052163;28;20068;-77
2022/12/06 02:39:33;;;;;;;8.20;3.08;;;;;;;;;;5052485;28;20037;-77
2022/12/06 02:42:05;;;;;;;14.63;3.40;;;;;;;;;;5052886;28;20418;-77
2022/12/06 02:44:43;;;;;;;14.90;3.10;;;;;;;;;;5053995;28;20045;-77
2022/12/06 02:47:11;;;;;;;8.68;3.17;;;;;;;;;;5040153;28;20052;-77
2022/12/06 02:49:43;;;;;;;8.68;2.70;;;;;;;;;;5052452;28;20041;-77
2022/12/06 02:52:09;;;;;;;9.32;2.80;;;;;;;;;;5063130;28;20108;-77
2022/12/06 02:54:36;;;;;;;7.70;2.78;;;;;;;;;;5053764;28;20064;-77
2022/12/06 02:57:02;;;;;;;8.90;2.80;;;;;;;;;;5052148;28;20048;-77
2022/12/06 02:59:28;;;;;;;7.47;2.40;;;;;;;;;;5052221;28;20033;-77
2022/12/06 03:01:59;;;;;;;6.95;2.90;;;;;;;;;;5052163;28;20049;-77
2022/12/06 03:04:45;;;;;;;7.88;2.70;;;;;;;;;;5052216;28;20053;-77
2022/12/06 03:07:30;;;;;;;7.78;3.25;;;;;;;;;;5051913;28;20453;-77
2022/12/06 03:10:14;;;;;;;7.68;2.83;;;;;;;;;;5052356;28;20414;-77
2022/12/06 03:12:53;;;;;;;7.28;2.92;;;;;;;;;;5051572;28;20040;-77
2022/12/06 03:15:34;;;;;;;8.05;2.72;;;;;;;;;;5051450;28;20048;-77
2022/12/06 03:18:16;;;;;;;6.68;2.50;;;;;;;;;;5066732;28;20048;-77
2022/12/06 03:20:44;;;;;;;7.15;2.83;;;;;;;;;;5057055;28;20073;-77
2022/12/06 03:23:13;;;;;;;8.98;2.55;;;;;;;;;;5063398;28;20460;-77
2022/12/06 03:25:39;;;;;;;6.60;2.50;;;;;;;;;;5054093;28;20040;-77
2022/12/06 03:28:06;;;;;;;5.88;2.63;;;;;;;;;;5068172;28;20048;-77
2022/12/06 03:30:34;;;;;;;7.47;2.40;;;;;;;;;;5071770;28;20074;-77
2022/12/06 03:33:00;;;;;;;6.03;2.80;;;;;;;;;;5070819;28;20105;-76
2022/12/06 03:35:29;;;;;;;6.45;2.20;;;;;;;;;;5058399;28;20135;-77
2022/12/06 03:37:58;;;;;;;6.00;2.53;;;;;;;;;;5105945;28;20543;-77
2022/12/06 03:40:29;;;;;;;7.38;3.33;;;;;;;;;;5048707;28;20037;-77
2022/12/06 03:42:56;;;;;;;7.43;2.28;;;;;;;;;;5035406;28;20494;-78
2022/12/06 03:45:25;;;;;;;7.35;3.10;;;;;;;;;;5066799;28;20032;-77
2022/12/06 03:48:06;;;;;;;8.18;3.05;;;;;;;;;;5064067;28;20040;-77
2022/12/06 03:50:36;;;;;;;7.75;2.90;;;;;;;;;;5066393;28;20037;-78
2022/12/06 03:53:02;;;;;;;9.35;3.20;;;;;;;;;;5064357;28;20117;-77
2022/12/06 03:55:29;;;;;;;8.85;3.10;;;;;;;;;;5071103;28;20516;-77
2022/12/06 03:57:55;;;;;;;4.90;2.92;;;;;;;;;;5061824;28;20044;-77
2022/12/06 04:00:21;;;;;;;8.13;2.90;;;;;;;;;;5048251;28;20076;-77
2022/12/06 04:02:47;;;;;;;7.18;3.05;;;;;;;;;;5051300;28;20052;-77
2022/12/06 04:05:13;;;;;;;8.90;3.50;;;;;;;;;;5066163;28;20051;-78
2022/12/06 04:07:39;;;;;;;8.50;3.20;;;;;;;;;;5054348;28;20036;-77
2022/12/06 04:10:06;;;;;;;8.60;3.38;;;;;;;;;;5059652;28;20053;-77
2022/12/06 04:15:19;;;;;;;9.85;3.65;;;;;;;;;;5097225;28;20052;-77
2022/12/06 04:23:02;;;;;;;8.10;3.63;;;;;;;;;;5057362;28;20071;-77
2022/12/06 04:23:17;;;;;;;8.43;3.25;;;;;;;;;;5047586;28;20131;-77
2022/12/06 04:25:43;;;;;;;7.22;2.97;;;;;;;;;;5057510;28;20049;-77
2022/12/06 04:39:08;;;;;;;9.75;3.60;;;;;;;;;;5059173;28;20095;-78
2022/12/06 04:44:18;;;;;;;8.43;3.50;;;;;;;;;;5064740;28;20036;-77
2022/12/06 04:46:45;;;;;;;10.48;3.78;;;;;;;;;;5072415;28;20401;-77
2022/12/06 04:49:11;;;;;;;13.43;3.88;;;;;;;;;;5072241;28;20041;-77
2022/12/06 04:51:37;;;;;;;11.07;3.97;;;;;;;;;;5069237;28;20102;-77
2022/12/06 04:54:04;;;;;;;9.63;3.55;;;;;;;;;;5060612;28;20040;-77
2022/12/06 04:56:30;;;;;;;10.13;3.55;;;;;;;;;;5056638;28;20493;-77
2022/12/06 04:58:56;;;;;;;10.15;3.80;;;;;;;;;;5054025;28;20133;-77
2022/12/06 05:01:22;;;;;;;13.63;4.00;;;;;;;;;;5059814;28;20040;-77
2022/12/06 05:03:48;;;;;;;8.70;3.33;;;;;;;;;;5050137;28;20053;-77
2022/12/06 05:06:14;;;;;;;9.40;3.55;;;;;;;;;;5051284;28;20049;-77
2022/12/06 05:08:40;;;;;;;8.75;3.85;;;;;;;;;;5050326;28;20378;-77
2022/12/06 05:11:06;;;;;;;10.65;4.20;;;;;;;;;;5050962;28;20043;-77
2022/12/06 05:13:32;;;;;;;9.52;4.28;;;;;;;;;;5050093;28;20041;-77
2022/12/06 05:16:00;;;;;;;9.90;4.03;;;;;;;;;;5050495;28;20043;-77
2022/12/06 05:18:27;;;;;;;9.18;3.85;;;;;;;;;;5050528;28;20075;-77
2022/12/06 05:21:12;;;;;;;10.07;4.15;;;;;;;;;;5052125;28;20029;-77
2022/12/06 05:23:38;;;;;;;8.98;3.85;;;;;;;;;;5050487;28;20125;-77
2022/12/06 05:26:06;;;;;;;11.95;4.45;;;;;;;;;;5053959;28;20041;-77
2022/12/06 05:28:33;;;;;;;8.73;3.72;;;;;;;;;;5070640;28;20540;-77
2022/12/06 05:30:59;;;;;;;9.10;4.25;;;;;;;;;;5069649;28;20175;-76
2022/12/06 05:33:25;;;;;;;10.13;4.03;;;;;;;;;;5052804;28;20036;-78
2022/12/06 05:35:51;;;;;;;8.23;3.92;;;;;;;;;;5066385;28;20048;-77
2022/12/06 05:38:17;;;;;;;12.18;4.35;;;;;;;;;;5074527;28;20505;-77
2022/12/06 05:40:44;;;;;;;10.32;4.38;;;;;;;;;;5075478;28;20443;-77
2022/12/06 05:43:10;;;;;;;11.88;4.35;;;;;;;;;;5074035;28;20040;-77
2022/12/06 05:45:37;;;;;;;13.10;4.15;;;;;;;;;;5073443;28;20087;-77
2022/12/06 05:48:03;;;;;;;11.60;4.30;;;;;;;;;;5074057;28;20459;-77
2022/12/06 05:50:29;;;;;;;11.23;4.97;;;;;;;;;;5100452;28;20363;-77
2022/12/06 05:52:55;;;;;;;13.25;6.18;;;;;;;;;;5068490;28;20041;-77
2022/12/06 05:55:22;;;;;;;16.27;6.45;;;;;;;;;;5059644;28;20071;-77
2022/12/06 05:57:48;;;;;;;11.88;4.80;;;;;;;;;;5073770;28;20046;-78
2022/12/06 06:00:14;;;;;;;8.35;4.07;;;;;;;;;;5073289;28;20052;-77
2022/12/06 06:02:41;;;;;;;13.45;4.70;;;;;;;;;;5073477;28;20060;-77
2022/12/06 06:05:07;;;;;;;9.90;4.53;;;;;;;;;;5073354;28;20050;-77
2022/12/06 06:07:33;;;;;;;8.93;4.57;;;;;;;;;;5073014;28;20044;-77
2022/12/06 06:09:59;;;;;;;8.20;3.92;;;;;;;;;;5073491;28;20056;-78
2022/12/06 06:12:25;;;;;;;8.88;3.63;;;;;;;;;;5073364;28;20047;-78
2022/12/06 06:14:52;;;;;;;9.55;3.88;;;;;;;;;;5073947;28;20555;-78
2022/12/06 06:17:18;;;;;;;10.30;3.95;;;;;;;;;;5073548;28;20046;-78
2022/12/06 06:19:44;;;;;;;9.30;3.75;;;;;;;;;;5073205;28;20551;-78
2022/12/06 06:22:10;;;;;;;10.88;3.97;;;;;;;;;;5059281;28;20044;-78
2022/12/06 06:24:37;;;;;;;16.15;3.80;;;;;;;;;;5068653;28;20033;-78
2022/12/06 06:27:03;;;;;;;10.43;4.10;;;;;;;;;;5063446;28;20040;-78
2022/12/06 06:29:29;;;;;;;6.93;3.53;;;;;;;;;;5070482;28;20070;-78
2022/12/06 06:31:55;;;;;;;9.45;3.70;;;;;;;;;;5062815;28;20036;-78
2022/12/06 06:34:21;;;;;;;9.82;3.85;;;;;;;;;;5061203;28;20041;-78
2022/12/06 06:36:47;;;;;;;6.60;3.10;;;;;;;;;;5072549;28;20036;-78
2022/12/06 06:39:14;;;;;;;8.77;3.30;;;;;;;;;;5073014;28;20032;-77
2022/12/06 06:41:40;;;;;;;9.23;3.40;;;;;;;;;;5072880;28;20091;-76
2022/12/06 06:44:06;;;;;;;11.48;3.42;;;;;;;;;;5073145;28;20049;-76
2022/12/06 06:46:32;;;;;;;7.00;3.42;;;;;;;;;;5071325;28;20048;-76
2022/12/06 06:49:00;;;;;;;10.02;3.28;;;;;;;;;;5056043;28;20119;-76
2022/12/06 06:51:26;;;;;;;9.07;3.50;;;;;;;;;;5073769;28;20040;-76
2022/12/06 06:53:52;;;;;;;8.20;3.25;;;;;;;;;;5065185;28;20033;-77
2022/12/06 06:56:19;;;;;;;7.88;3.05;;;;;;;;;;5049827;28;20473;-77
2022/12/06 06:58:45;;;;;;;5.90;2.95;;;;;;;;;;5072579;28;20040;-77
2022/12/06 07:01:18;;;;;;;10.60;3.25;;;;;;;;;;5073953;28;20154;-77
2022/12/06 07:03:44;;;;;;;9.68;3.53;;;;;;;;;;5072241;28;20101;-77
2022/12/06 07:06:10;;;;;;;8.15;3.35;;;;;;;;;;5062019;28;20120;-76
2022/12/06 07:08:37;;;;;;;11.05;3.80;;;;;;;;;;5065992;28;20037;-76
2022/12/06 07:11:03;;;;;;;6.80;3.10;;;;;;;;;;5060908;28;20052;-76
2022/12/06 07:13:30;;;;;;;9.48;3.40;;;;;;;;;;5073342;28;20040;-77
2022/12/06 07:15:57;;;;;;;5.90;2.83;;;;;;;;;;5065329;28;20120;-76
2022/12/06 07:18:24;;;;;;;7.20;3.08;;;;;;;;;;5066823;28;20044;-77
2022/12/06 07:20:57;;;;;;;7.53;3.20;;;;;;;;;;5071747;28;20032;-77
2022/12/06 07:23:23;;;;;;;7.50;2.75;;;;;;;;;;5072282;28;20513;-77
2022/12/06 07:25:58;;;;;;;7.03;3.13;;;;;;;;;;5067962;28;20078;-77
2022/12/06 07:28:24;;;;;;;9.18;3.70;;;;;;;;;;5071953;28;20048;-76
2022/12/06 07:30:50;;;;;;;6.70;3.17;;;;;;;;;;5054844;28;20040;-76
2022/12/06 07:33:16;;;;;;;10.23;3.45;;;;;;;;;;5068793;28;20065;-78
2022/12/06 07:35:42;;;;;;;10.50;3.20;;;;;;;;;;5063029;28;20048;-77
2022/12/06 07:38:08;;;;;;;12.95;3.25;;;;;;;;;;5068099;28;20099;-76
2022/12/06 07:40:34;;;;;;;9.38;3.60;;;;;;;;;;5062743;28;20085;-76
2022/12/06 07:45:45;;;;;;;8.90;2.88;;;;;;;;;;5071270;28;20063;-77
2022/12/06 07:48:12;;;;;;;8.10;3.03;;;;;;;;;;5073351;28;20048;-77
2022/12/06 07:50:38;;;;;;;9.95;3.20;;;;;;;;;;5072402;28;20045;-76
2022/12/06 07:53:04;;;;;;;8.10;3.03;;;;;;;;;;5072737;28;20040;-77
2022/12/06 07:55:31;;;;;;;9.63;3.22;;;;;;;;;;5071765;28;20041;-77
2022/12/06 07:57:57;;;;;;;7.60;2.97;;;;;;;;;;5071132;28;20493;-76
2022/12/06 08:00:23;;;;;;;6.53;3.20;;;;;;;;;;5071244;28;20106;-76
2022/12/06 08:02:49;;;;;;;9.48;3.20;;;;;;;;;;5071272;28;20520;-77
2022/12/06 08:05:15;;;;;;;10.30;3.75;;;;;;;;;;5071279;28;20290;-76
2022/12/06 08:07:41;;;;;;;10.30;3.58;;;;;;;;;;5072144;28;20036;-77
2022/12/06 08:10:08;;;;;;;10.50;3.75;;;;;;;;;;5071136;28;20036;-77
2022/12/06 08:12:34;;;;;;;8.85;3.67;;;;;;;;;;5064094;28;20041;-77
2022/12/06 08:15:00;;;;;;;11.02;3.75;;;;;;;;;;5063984;28;20491;-77
2022/12/06 08:17:26;;;;;;;11.20;3.70;;;;;;;;;;5070997;28;20038;-76
2022/12/06 08:19:52;;;;;;;15.05;4.53;;;;;;;;;;5104858;28;20393;-77
2022/12/06 08:22:18;;;;;;;10.50;4.10;;;;;;;;;;5057123;28;20557;-77
2022/12/06 08:24:44;;;;;;;7.85;4.60;;;;;;;;;;5065483;28;20370;-77
2022/12/06 08:27:10;;;;;;;11.20;4.57;;;;;;;;;;5062763;28;20401;-78
2022/12/06 08:29:36;;;;;;;6.53;3.88;;;;;;;;;;5072477;28;20047;-78
2022/12/06 08:32:03;;;;;;;6.10;3.17;;;;;;;;;;5071844;28;20044;-78
2022/12/06 08:34:29;;;;;;;11.02;2.47;;;;;;;;;;5042933;28;20535;-77
2022/12/06 08:36:55;;;;;;;5.32;2.42;;;;;;;;;;5071066;28;20040;-78
2022/12/06 08:39:24;;;;;;;4.88;2.40;;;;;;;;;;5071035;28;20044;-77
2022/12/06 08:42:01;;;;;;;5.35;2.50;;;;;;;;;;5036821;28;20041;-77
2022/12/06 08:44:27;;;;;;;5.30;2.15;;;;;;;;;;5065923;28;20044;-77
2022/12/06 08:46:54;;;;;;;6.90;3.33;;;;;;;;;;5071759;28;20072;-77
2022/12/06 08:49:20;;;;;;;4.30;2.50;;;;;;;;;;5072501;28;20059;-77
2022/12/06 08:51:47;;;;;;;4.85;2.35;;;;;;;;;;5070609;28;20028;-77
2022/12/06 08:54:14;;;;;;;6.50;2.30;;;;;;;;;;5062040;28;20556;-77
2022/12/06 08:56:40;;;;;;;6.63;2.22;;;;;;;;;;5050622;28;20516;-77
2022/12/06 08:59:06;;;;;;;4.38;2.30;;;;;;;;;;5062237;28;20044;-77
2022/12/06 09:01:32;;;;;;;4.88;2.22;;;;;;;;;;5064556;28;20107;-77
2022/12/06 09:03:59;;;;;;;5.22;1.92;;;;;;;;;;5056636;28;20127;-77
2022/12/06 09:06:25;;;;;;;3.95;2.08;;;;;;;;;;5058501;28;20501;-78
2022/12/06 09:08:52;;;;;;;6.40;2.30;;;;;;;;;;5068821;28;20120;-77
2022/12/06 09:11:18;;;;;;;5.47;2.30;;;;;;;;;;5058451;28;20447;-77
2022/12/06 09:13:45;;;;;;;5.47;2.13;;;;;;;;;;5074326;28;20032;-77
2022/12/06 09:16:12;;;;;;;7.30;2.40;;;;;;;;;;5074489;28;20043;-77
2022/12/06 09:18:39;;;;;;;8.63;2.35;;;;;;;;;;5074288;28;20048;-77
2022/12/06 09:21:09;;;;;;;6.05;2.40;;;;;;;;;;5074340;28;20508;-77
2022/12/06 09:23:36;;;;;;;5.82;2.22;;;;;;;;;;5060825;28;20417;-76
2022/12/06 09:26:03;;;;;;;6.50;2.05;;;;;;;;;;5058057;28;20489;-77
2022/12/06 09:28:29;;;;;;;6.50;2.40;;;;;;;;;;5062297;28;20081;-77
2022/12/06 09:30:55;;;;;;;5.63;2.60;;;;;;;;;;5043379;28;20585;-77
2022/12/06 09:33:23;;;;;;;9.80;2.40;;;;;;;;;;5070472;28;20032;-77
2022/12/06 09:35:52;;;;;;;8.25;2.17;;;;;;;;;;5066711;28;20090;-76
2022/12/06 09:38:19;;;;;;;6.63;2.47;;;;;;;;;;5057446;28;20067;-77
2022/12/06 09:40:52;;;;;;;6.20;2.47;;;;;;;;;;5073975;28;20093;-77
2022/12/06 09:43:36;;;;;;;6.95;2.58;;;;;;;;;;5071160;28;20078;-77
2022/12/06 09:46:06;;;;;;;7.65;2.70;;;;;;;;;;5050003;28;20037;-77
2022/12/06 09:48:51;;;;;;;5.65;2.63;;;;;;;;;;5060024;28;20119;-77
2022/12/06 09:51:26;;;;;;;6.38;2.08;;;;;;;;;;5075127;28;20091;-77
2022/12/06 09:54:10;;;;;;;5.13;1.90;;;;;;;;;;5027898;28;20553;-77
2022/12/06 09:56:39;;;;;;;5.88;2.47;;;;;;;;;;5068092;28;20084;-77
2022/12/06 09:59:11;;;;;;;5.30;2.20;;;;;;;;;;5045659;28;20551;-77
2022/12/06 10:01:37;;;;;;;6.50;2.03;;;;;;;;;;5073448;28;20048;-77
2022/12/06 10:04:09;;;;;;;5.72;2.05;;;;;;;;;;5073318;28;20055;-77
2022/12/06 10:06:41;;;;;;;5.18;2.30;;;;;;;;;;5073591;28;20282;-77
2022/12/06 10:09:08;;;;;;;7.28;2.30;;;;;;;;;;5047930;28;20469;-77
2022/12/06 10:11:34;;;;;;;6.32;2.08;;;;;;;;;;5060960;28;20049;-77
2022/12/06 10:14:03;;;;;;;6.88;2.45;;;;;;;;;;5071952;28;20500;-77
2022/12/06 10:16:39;;;;;;;5.68;2.35;;;;;;;;;;5056970;28;20044;-77
2022/12/06 10:19:04;;;;;;;;;;;;;;;;;;5073524;28;20036;-77
2022/12/06 10:21:30;;;;;;;5.43;2.30;;;;;;;;;;5073187;28;20026;-76
2022/12/06 10:24:15;;;;;;;5.57;2.25;;;;;;;;;;5072855;28;20048;-77
2022/12/06 10:26:49;;;;;;;5.97;2.30;;;;;;;;;;5048129;28;20052;-77
2022/12/06 10:29:24;;;;;;;5.70;2.72;;;;;;;;;;5058750;28;20125;-77
2022/12/06 10:31:57;;;;;;;6.27;2.20;;;;;;;;;;5056554;28;20040;-77
2022/12/06 10:34:26;;;;;;;7.43;2.30;;;;;;;;;;5062891;28;20037;-77
2022/12/06 10:36:52;;;;;;;7.45;2.03;;;;;;;;;;5073016;28;20093;-76
2022/12/06 10:39:31;;;;;;;7.47;2.28;;;;;;;;;;5072561;28;20045;-77
2022/12/06 10:42:08;;;;;;;4.03;2.00;;;;;;;;;;5047274;28;20094;-77
2022/12/06 10:44:41;;;;;;;3.92;1.98;;;;;;;;;;5073561;28;20055;-77
2022/12/06 10:47:07;;;;;;;7.45;2.20;;;;;;;;;;5061519;28;20486;-76
2022/12/06 10:49:40;;;;;;;5.93;1.80;;;;;;;;;;5073069;28;20497;-76
2022/12/06 10:52:09;;;;;;;6.45;2.00;;;;;;;;;;5046149;28;20059;-76
2022/12/06 10:54:43;;;;;;;5.28;2.25;;;;;;;;;;5056118;28;20519;-76
2022/12/06 10:57:17;;;;;;;6.10;2.13;;;;;;;;;;5072736;28;20078;-76
2022/12/06 10:59:47;;;;;;;6.80;2.20;;;;;;;;;;5072864;28;20393;-76
2022/12/06 11:02:26;;;;;;;6.68;2.50;;;;;;;;;;5066081;28;20060;-76
2022/12/06 11:04:55;;;;;;;5.50;2.10;;;;;;;;;;5066489;28;20060;-76
2022/12/06 11:07:23;;;;;;;6.10;2.10;;;;;;;;;;5072145;28;20036;-76
2022/12/06 11:09:50;;;;;;;4.93;1.95;;;;;;;;;;5072405;28;20063;-77
2022/12/06 11:12:23;;;;;;;5.28;2.20;;;;;;;;;;5071909;28;20457;-76
2022/12/06 11:14:52;;;;;;;4.38;1.80;;;;;;;;;;5072424;28;20504;-76
2022/12/06 11:17:21;;;;;;;3.70;1.77;;;;;;;;;;5067704;28;20037;-76
2022/12/06 11:19:53;;;;;;;6.00;1.70;;;;;;;;;;5062698;28;20040;-77
2022/12/06 11:22:42;;;;;;;4.00;1.83;;;;;;;;;;5071911;28;20036;-77
2022/12/06 11:25:08;;;;;;;4.82;2.00;;;;;;;;;;5044682;28;20487;-77
2022/12/06 11:27:40;;;;;;;4.30;1.85;;;;;;;;;;5083270;28;20040;-77
2022/12/06 11:30:13;;;;;;;6.57;1.80;;;;;;;;;;5055030;28;20124;-76
2022/12/06 11:32:40;;;;;;;6.22;1.73;;;;;;;;;;5071257;28;20040;-76
2022/12/06 11:35:11;;;;;;;6.78;1.70;;;;;;;;;;5059944;28;20059;-77
2022/12/06 11:37:37;;;;;;;5.97;1.40;;;;;;;;;;5055527;28;20512;-76
2022/12/06 11:40:22;;;;;;;5.20;1.80;;;;;;;;;;5050259;28;20102;-76
2022/12/06 11:42:49;;;;;;;6.20;1.75;;;;;;;;;;5066047;28;20040;-77
2022/12/06 11:45:20;;;;;;;2.72;1.38;;;;;;;;;;5071602;28;20545;-77
2022/12/06 11:47:46;;;;;;;2.97;1.40;;;;;;;;;;5073154;28;20419;-76
2022/12/06 11:50:18;;;;;;;5.63;1.60;;;;;;;;;;5071129;28;20044;-76
2022/12/06 11:52:55;;;;;;;3.95;1.60;;;;;;;;;;5072939;28;20040;-77
2022/12/06 11:55:23;;;;;;;4.13;1.60;;;;;;;;;;5071341;28;20055;-77
2022/12/06 11:57:52;;;;;;;3.97;1.70;;;;;;;;;;5071415;28;20039;-77
2022/12/06 12:00:23;;;;;;;3.85;1.52;;;;;;;;;;5057084;28;20532;-76
2022/12/06 12:02:50;;;;;;;4.25;1.30;;;;;;;;;;5071220;28;20048;-76
2022/12/06 12:05:16;;;;;;;6.75;1.52;;;;;;;;;;5054109;28;20119;-76
2022/12/06 12:07:44;;;;;;;8.48;1.30;;;;;;;;;;5060306;28;20123;-77
2022/12/06 12:10:30;;;;;;;4.43;1.17;;;;;;;;;;5053188;28;20048;-77
2022/12/06 12:15:53;;;;;;;2.85;1.15;;;;;;;;;;5065389;28;20041;-76
2022/12/06 12:18:22;;;;;;;2.80;0.90;;;;;;;;;;5064621;28;20044;-77
2022/12/06 12:20:48;;;;;;;2.97;1.33;;;;;;;;;;5054412;28;20115;-77
2022/12/06 12:23:23;;;;;;;2.88;0.98;;;;;;;;;;5070878;28;20048;-76
2022/12/06 12:26:02;;;;;;;3.40;1.00;;;;;;;;;;5057313;28;20045;-77
2022/12/06 12:28:33;;;;;;;3.95;0.90;;;;;;;;;;5070653;28;20127;-77
2022/12/06 12:31:00;;;;;;;4.30;1.00;;;;;;;;;;5071070;28;20045;-77
2022/12/06 12:33:27;;;;;;;2.92;0.88;;;;;;;;;;5063908;28;20374;-77
2022/12/06 12:35:54;;;;;;;3.13;1.05;;;;;;;;;;5031150;28;20048;-78
2022/12/06 12:38:27;;;;;;;4.55;1.30;;;;;;;;;;5065777;28;20041;-77
2022/12/06 12:40:55;;;;;;;3.60;1.10;;;;;;;;;;5064398;28;20072;-77
2022/12/06 12:43:23;;;;;;;4.82;1.15;;;;;;;;;;5070458;28;20123;-77
2022/12/06 12:46:06;;;;;;;2.92;1.10;;;;;;;;;;5074926;28;20040;-76
2022/12/06 12:48:33;;;;;;;2.47;1.10;;;;;;;;;;5058231;28;20393;-76
2022/12/06 12:51:00;;;;;;;3.72;1.20;;;;;;;;;;5075047;28;20044;-76
2022/12/06 12:53:37;;;;;;;3.78;1.15;;;;;;;;;;5060572;28;20043;-76
2022/12/06 12:56:09;;;;;;;2.65;1.20;;;;;;;;;;5075343;28;20082;-77
2022/12/06 12:58:35;;;;;;;3.88;1.17;;;;;;;;;;5074587;28;20049;-76
2022/12/06 13:01:03;;;;;;;7.30;1.48;;;;;;;;;;5064740;28;20048;-77
2022/12/06 13:03:30;;;;;;;2.40;1.30;;;;;;;;;;5057018;28;20079;-77
2022/12/06 13:05:56;;;;;;;6.35;1.33;;;;;;;;;;5074873;28;20041;-76
2022/12/06 13:08:25;;;;;;;4.90;1.20;;;;;;;;;;5074241;28;20048;-77
2022/12/06 13:10:54;;;;;;;4.28;0.98;;;;;;;;;;5076367;28;20068;-76
2022/12/06 13:13:24;;;;;;;3.10;1.10;;;;;;;;;;5074038;28;20036;-77
2022/12/06 13:15:51;;;;;;;4.05;1.20;;;;;;;;;;5074676;28;20045;-76
2022/12/06 13:18:20;;;;;;;4.28;1.20;;;;;;;;;;5074289;28;20105;-76
2022/12/06 13:20:47;;;;;;;3.22;1.30;;;;;;;;;;5057914;28;20385;-77
2022/12/06 13:23:15;;;;;;;4.00;1.20;;;;;;;;;;5074634;28;20056;-76
2022/12/06 13:25:56;;;;;;;3.05;1.13;;;;;;;;;;5060736;28;20091;-76
2022/12/06 13:28:26;;;;;;;2.17;1.15;;;;;;;;;;5081844;28;20103;-76
2022/12/06 13:31:03;;;;;;;3.38;1.05;;;;;;;;;;5074523;28;20558;-76
2022/12/06 13:33:31;;;;;;;4.30;1.00;;;;;;;;;;5069406;28;20099;-76
2022/12/06 13:36:01;;;;;;;2.40;0.95;;;;;;;;;;5054189;28;20073;-76
2022/12/06 13:38:31;;;;;;;3.35;1.02;;;;;;;;;;5046080;28;20037;-76
2022/12/06 13:40:59;;;;;;;5.90;1.15;;;;;;;;;;5057482;28;20039;-76
2022/12/06 13:43:25;;;;;;;5.57;1.30;;;;;;;;;;5060598;28;20464;-77
2022/12/06 13:45:52;;;;;;;3.65;1.58;;;;;;;;;;5058193;28;20044;-77
2022/12/06 13:48:24;;;;;;;3.17;1.35;;;;;;;;;;5074031;28;20047;-77
2022/12/06 13:50:50;;;;;;;4.25;1.58;;;;;;;;;;5107605;28;20047;-77
2022/12/06 13:53:16;;;;;;;3.78;1.38;;;;;;;;;;5060844;28;20037;-77
2022/12/06 13:55:50;;;;;;;2.30;1.10;;;;;;;;;;5074570;28;20049;-77
2022/12/06 13:58:16;;;;;;;2.97;1.20;;;;;;;;;;5073777;28;20036;-77
2022/12/06 14:00:42;;;;;;;3.83;1.00;;;;;;;;;;5073223;28;20048;-77
2022/12/06 14:03:11;;;;;;;3.97;1.17;;;;;;;;;;5043867;28;20049;-77
2022/12/06 14:05:56;;;;;;;4.10;1.30;;;;;;;;;;5084244;28;20041;-77
2022/12/06 14:08:30;;;;;;;2.53;0.90;;;;;;;;;;5051622;28;20040;-76
2022/12/06 14:11:06;;;;;;;4.43;1.52;;;;;;;;;;5073624;28;20044;-77
2022/12/06 14:13:32;;;;;;;3.15;1.00;;;;;;;;;;5072939;28;20037;-77
2022/12/06 14:15:58;;;;;;;3.70;0.98;;;;;;;;;;5066488;28;20509;-77
2022/12/06 14:18:26;;;;;;;4.93;0.90;;;;;;;;;;5067907;28;20066;-77
2022/12/06 14:20:53;;;;;;;6.63;1.15;;;;;;;;;;5074652;28;20089;-77
2022/12/06 14:23:24;;;;;;;3.97;1.00;;;;;;;;;;5056502;28;20040;-77
2022/12/06 14:25:50;;;;;;;2.15;1.00;;;;;;;;;;5060157;28;20040;-77
2022/12/06 14:28:17;;;;;;;3.83;1.10;;;;;;;;;;5056589;28;20051;-77
2022/12/06 14:30:45;;;;;;;3.83;1.20;;;;;;;;;;5072954;28;20539;-77
2022/12/06 14:33:23;;;;;;;3.75;1.23;;;;;;;;;;5071102;28;20545;-77
2022/12/06 14:35:51;;;;;;;3.92;1.58;;;;;;;;;;5065345;28;20052;-77
2022/12/06 14:38:17;;;;;;;8.05;1.80;;;;;;;;;;5051797;28;20474;-77
2022/12/06 14:43:30;;;;;;;5.03;2.20;;;;;;;;;;5058405;28;20497;-77
2022/12/06 14:45:57;;;;;;;5.75;2.10;;;;;;;;;;5074069;28;20049;-77
2022/12/06 14:48:23;;;;;;;4.38;1.88;;;;;;;;;;5072780;28;20028;-77
2022/12/06 14:50:49;;;;;;;3.30;1.98;;;;;;;;;;5073720;28;20397;-77
2022/12/06 14:53:27;;;;;;;6.00;1.90;;;;;;;;;;5072842;28;20549;-78
2022/12/06 14:55:55;;;;;;;6.03;2.20;;;;;;;;;;5073969;28;20451;-77
2022/12/06 14:58:23;;;;;;;3.30;1.85;;;;;;;;;;5072916;28;20048;-78
2022/12/06 15:00:52;;;;;;;6.03;2.40;;;;;;;;;;5072024;28;20076;-77
2022/12/06 15:03:21;;;;;;;6.18;2.30;;;;;;;;;;5072324;28;20110;-78
2022/12/06 15:05:48;;;;;;;6.22;2.33;;;;;;;;;;5072017;28;20047;-76
2022/12/06 15:08:18;;;;;;;6.78;2.40;;;;;;;;;;5071434;28;20047;-76
2022/12/06 15:11:01;;;;;;;6.15;2.10;;;;;;;;;;5052103;28;20050;-76
2022/12/06 15:13:28;;;;;;;4.85;2.30;;;;;;;;;;5066870;28;20032;-76
2022/12/06 15:16:20;;;;;;;4.63;1.98;;;;;;;;;;5071784;28;20039;-76
2022/12/06 15:18:57;;;;;;;10.63;2.72;;;;;;;;;;5070641;28;20127;-78